Time;durP1;ratioP1;P1;durP2;ratioP2;P2;SDS_P1;SDS_P2;PMS_P1;PMS_P2;Temp;Humidity;BMP_temperature;BMP_pressure;BME280_temperature;BME280_humidity;BME280_pressure;Samples;Min_cycle;Max_cycle;Signal;HPM_P1;HPM_P2
2023/05/17 00:02:21;;;;;;;5.60;4.80;;;;;;;16.10;56.89;99759.71;106516;1252;60533;-71
2023/05/17 00:04:48;;;;;;;10.70;4.80;;;;;;;16.10;57.11;99756.88;106671;1254;75226;-73
2023/05/17 00:07:15;;;;;;;6.70;4.40;;;;;;;16.10;57.05;99754.35;106479;1259;71695;-75
2023/05/17 00:09:42;;;;;;;6.00;3.90;;;;;;;16.11;57.23;99755.52;106589;1254;72395;-73
2023/05/17 00:12:09;;;;;;;7.30;4.30;;;;;;;16.10;57.18;99754.31;106508;1254;62455;-73
2023/05/17 00:14:36;;;;;;;7.60;4.80;;;;;;;16.10;57.15;99760.46;106171;1254;61561;-71
2023/05/17 00:17:05;;;;;;;8.30;4.70;;;;;;;16.09;57.20;99762.31;106235;1253;73531;-73
2023/05/17 00:19:32;;;;;;;9.30;5.10;;;;;;;16.10;57.33;99766.07;106532;1253;70467;-74
2023/05/17 00:21:59;;;;;;;7.40;4.70;;;;;;;16.09;57.21;99761.87;106226;1257;72468;-73
2023/05/17 00:24:26;;;;;;;6.10;4.40;;;;;;;16.08;57.48;99768.86;106218;1259;60538;-72
2023/05/17 00:26:53;;;;;;;7.20;4.30;;;;;;;16.08;57.27;99771.38;106453;1259;61450;-72
2023/05/17 00:29:20;;;;;;;8.60;5.10;;;;;;;16.09;57.41;99767.27;106340;1259;74723;-73
2023/05/17 00:31:47;;;;;;;8.10;4.20;;;;;;;16.10;57.45;99773.03;106247;1254;70078;-72
2023/05/17 00:34:13;;;;;;;8.20;4.50;;;;;;;16.10;57.47;99777.74;106323;1259;74901;-73
2023/05/17 00:36:40;;;;;;;7.10;4.60;;;;;;;16.11;57.32;99774.56;106343;1254;62954;-74
2023/05/17 00:39:07;;;;;;;5.40;4.60;;;;;;;16.12;57.33;99777.04;106927;1253;61666;-74
2023/05/17 00:41:34;;;;;;;8.30;4.60;;;;;;;16.13;57.38;99775.84;106828;1256;75010;-75
2023/05/17 00:44:01;;;;;;;6.10;4.30;;;;;;;16.14;57.30;99778.20;106739;1254;72537;-74
2023/05/17 00:46:28;;;;;;;12.70;4.10;;;;;;;16.15;57.28;99778.89;106669;1257;75003;-75
2023/05/17 00:48:55;;;;;;;10.50;4.80;;;;;;;16.15;57.35;99778.40;106872;1257;60541;-74
2023/05/17 00:51:22;;;;;;;5.10;4.30;;;;;;;16.16;57.22;99778.85;106864;1255;60481;-72
2023/05/17 00:53:49;;;;;;;11.10;4.60;;;;;;;16.17;57.02;99779.96;106745;1253;75849;-72
2023/05/17 00:56:16;;;;;;;6.20;5.00;;;;;;;16.18;57.11;99779.77;107493;1253;71137;-73
2023/05/17 00:58:43;;;;;;;8.40;4.50;;;;;;;16.20;56.98;99780.06;109411;1252;73545;-75
2023/05/17 01:01:09;;;;;;;8.70;4.60;;;;;;;16.21;56.90;99780.02;109322;1253;59435;-73
2023/05/17 01:03:36;;;;;;;7.90;4.10;;;;;;;16.24;56.80;99783.35;109464;1253;61186;-73
2023/05/17 01:06:04;;;;;;;11.10;4.70;;;;;;;16.28;56.78;99781.35;109248;1253;74708;-75
2023/05/17 01:08:32;;;;;;;5.00;4.30;;;;;;;16.30;56.66;99781.05;109151;1253;71328;-72
2023/05/17 01:11:01;;;;;;;7.90;4.20;;;;;;;16.33;56.71;99780.00;109234;1252;73614;-74
2023/05/17 01:13:56;;;;;;;9.00;4.80;;;;;;;16.36;56.68;99777.65;109251;1252;61302;-73
2023/05/17 01:16:39;;;;;;;5.80;4.40;;;;;;;16.38;56.58;99780.69;109055;1253;61154;-75
2023/05/17 01:19:34;;;;;;;7.10;4.40;;;;;;;16.40;56.43;99777.98;109292;1254;74832;-72
2023/05/17 01:22:23;;;;;;;9.30;5.00;;;;;;;16.42;56.34;99772.29;109413;1253;71271;-74
2023/05/17 01:25:27;;;;;;;7.40;4.30;;;;;;;16.45;56.25;99774.59;109106;1254;73607;-72
2023/05/17 01:27:59;;;;;;;8.90;4.70;;;;;;;16.47;56.22;99774.62;108886;1253;61002;-72
2023/05/17 01:30:32;;;;;;;8.80;5.20;;;;;;;16.49;56.19;99772.61;109278;1253;61232;-71
2023/05/17 01:32:58;;;;;;;8.30;5.00;;;;;;;16.51;56.07;99773.06;109141;1253;74835;-72
2023/05/17 01:35:25;;;;;;;5.70;4.60;;;;;;;16.53;56.18;99773.40;109145;1253;71354;-74
2023/05/17 01:37:53;;;;;;;6.90;4.80;;;;;;;16.53;56.02;99774.73;109232;1253;73414;-72
2023/05/17 01:40:20;;;;;;;7.70;4.20;;;;;;;16.53;55.96;99773.27;109083;1253;59537;-72
2023/05/17 01:42:51;;;;;;;6.80;4.30;;;;;;;16.56;55.92;99777.69;109186;1252;58821;-73
2023/05/17 01:45:35;;;;;;;10.50;4.40;;;;;;;16.57;55.77;99776.86;109204;1254;75523;-72
2023/05/17 01:48:22;;;;;;;5.90;4.00;;;;;;;16.58;55.77;99772.58;109346;1253;71178;-72
2023/05/17 01:50:50;;;;;;;6.20;4.70;;;;;;;16.60;55.79;99769.41;108907;1253;73714;-72
2023/05/17 01:53:20;;;;;;;6.80;4.40;;;;;;;16.60;55.75;99769.36;109016;1253;61428;-73
2023/05/17 01:55:49;;;;;;;5.70;4.80;;;;;;;16.60;55.69;99772.87;109254;1252;180439;-72
2023/05/17 01:59:32;;;;;;;6.40;4.90;;;;;;;16.62;55.89;99767.61;106110;1291;599381;-74
2023/05/17 02:02:04;;;;;;;7.10;4.20;;;;;;;16.61;55.82;99770.88;108711;1266;61350;-76
2023/05/17 02:04:31;;;;;;;5.30;4.40;;;;;;;16.61;55.83;99769.80;108568;1267;61154;-75
2023/05/17 02:07:01;;;;;;;7.60;4.50;;;;;;;16.60;55.79;99772.53;108472;1266;71016;-74
2023/05/17 02:09:28;;;;;;;8.40;4.30;;;;;;;16.60;55.86;99773.27;108502;1266;69819;-76
2023/05/17 02:11:55;;;;;;;7.70;4.80;;;;;;;16.59;55.93;99775.59;108611;1266;73548;-76
2023/05/17 02:14:22;;;;;;;8.40;5.00;;;;;;;16.58;56.02;99778.02;108478;1263;292770;-74
2023/05/17 02:16:49;;;;;;;7.90;4.90;;;;;;;16.57;56.18;99777.64;108164;1263;61178;-74
2023/05/17 02:19:16;;;;;;;6.60;5.10;;;;;;;16.54;56.16;99779.46;108064;1263;73677;-74
2023/05/17 02:21:43;;;;;;;6.20;4.60;;;;;;;16.50;56.47;99781.11;108122;1264;72093;-73
2023/05/17 02:24:10;;;;;;;6.60;4.30;;;;;;;16.45;56.46;99784.96;108410;1264;71833;-75
2023/05/17 02:26:41;;;;;;;8.60;4.60;;;;;;;16.42;56.50;99788.54;106486;1268;61479;-74
2023/05/17 02:29:10;;;;;;;5.50;4.60;;;;;;;16.39;56.54;99781.56;105673;1265;61394;-76
2023/05/17 02:31:38;;;;;;;8.40;4.90;;;;;;;16.37;56.59;99783.86;108950;1256;73675;-73
2023/05/17 02:34:05;;;;;;;5.30;4.80;;;;;;;16.36;56.64;99783.45;108973;1256;70908;-73
2023/05/17 02:36:32;;;;;;;6.80;4.30;;;;;;;16.35;56.83;99787.21;108379;1256;70850;-74
2023/05/17 02:39:00;;;;;;;7.30;5.20;;;;;;;16.34;56.66;99793.52;108656;1255;60267;-77
2023/05/17 02:41:26;;;;;;;7.10;4.80;;;;;;;16.33;56.92;99797.76;108545;1256;61202;-73
2023/05/17 02:43:53;;;;;;;5.20;4.20;;;;;;;16.31;56.95;99799.08;106274;1257;74004;-73
2023/05/17 02:46:20;;;;;;;5.50;4.30;;;;;;;16.30;57.00;99798.75;105755;1256;71558;-75
2023/05/17 02:48:47;;;;;;;8.20;4.90;;;;;;;16.27;56.96;99801.77;105589;1256;73847;-72
2023/05/17 02:51:14;;;;;;;8.10;5.30;;;;;;;16.25;56.94;99802.54;105213;1262;61232;-75
2023/05/17 02:53:41;;;;;;;7.50;5.80;;;;;;;16.24;57.17;99802.20;105667;1260;62380;-74
2023/05/17 02:56:09;;;;;;;10.10;7.60;;;;;;;16.22;57.28;99806.40;105557;1256;74869;-75
2023/05/17 02:58:36;;;;;;;12.70;9.10;;;;;;;16.20;57.34;99801.63;105701;1262;69703;-75
2023/05/17 03:01:03;;;;;;;10.10;9.00;;;;;;;16.19;57.77;99807.73;105605;1259;72159;-77
2023/05/17 03:03:30;;;;;;;9.50;8.00;;;;;;;16.16;58.23;99807.22;105656;1256;60599;-77
2023/05/17 03:06:01;;;;;;;10.20;7.80;;;;;;;16.12;58.40;99807.21;106049;1260;61698;-76
2023/05/17 03:08:28;;;;;;;9.10;7.40;;;;;;;16.10;58.77;99811.05;106546;1262;75632;-76
2023/05/17 03:10:56;;;;;;;8.90;7.00;;;;;;;16.07;59.19;99811.61;106373;1256;70545;-77
2023/05/17 03:13:23;;;;;;;9.90;6.50;;;;;;;16.04;59.21;99812.22;106773;1256;74913;-77
2023/05/17 03:15:50;;;;;;;8.80;6.40;;;;;;;16.01;59.15;99812.05;106561;1260;60725;-77
2023/05/17 03:18:17;;;;;;;7.80;5.70;;;;;;;16.01;59.26;99808.88;106006;1256;61304;-74
2023/05/17 03:20:44;;;;;;;8.10;5.60;;;;;;;16.01;59.18;99807.05;105745;1257;74261;-77
2023/05/17 03:23:11;;;;;;;6.80;5.70;;;;;;;16.04;59.05;99806.16;105874;1263;70912;-77
2023/05/17 03:25:58;;;;;;;7.60;5.70;;;;;;;16.06;59.16;99812.30;105992;1259;74232;-78
2023/05/17 03:28:27;;;;;;;6.90;5.30;;;;;;;16.07;59.21;99812.23;105799;1256;62490;-75
2023/05/17 03:30:54;;;;;;;7.50;5.10;;;;;;;16.08;59.25;99812.48;106190;1256;61206;-77
2023/05/17 03:33:21;;;;;;;11.60;5.40;;;;;;;16.10;59.13;99813.94;106246;1256;74421;-75
2023/05/17 03:35:48;;;;;;;8.30;5.30;;;;;;;16.12;59.12;99820.45;105708;1256;72436;-73
2023/05/17 03:38:15;;;;;;;8.50;5.40;;;;;;;16.14;59.10;99825.69;105620;1258;72689;-78
2023/05/17 03:40:42;;;;;;;11.00;5.00;;;;;;;16.17;59.07;99831.02;105546;1257;62495;-76
2023/05/17 03:43:09;;;;;;;7.80;5.50;;;;;;;16.20;59.00;99831.84;105595;1263;62547;-76
2023/05/17 03:45:36;;;;;;;10.10;7.20;;;;;;;16.24;59.00;99836.67;105655;1262;72905;-73
2023/05/17 03:48:04;;;;;;;7.80;6.40;;;;;;;16.29;59.04;99831.58;105661;1258;71247;-78
2023/05/17 03:50:32;;;;;;;14.20;6.60;;;;;;;16.32;59.07;99836.81;105585;1259;73700;-78
2023/05/17 03:53:00;;;;;;;8.70;6.90;;;;;;;16.34;59.19;99838.23;105623;1256;61497;-78
2023/05/17 03:55:26;;;;;;;10.50;5.90;;;;;;;16.36;59.28;99837.29;105862;1256;59675;-77
2023/05/17 03:57:54;;;;;;;8.20;5.60;;;;;;;16.37;59.33;99840.66;105754;1257;71899;-76
2023/05/17 04:00:21;;;;;;;7.60;4.90;;;;;;;16.39;59.35;99842.02;105856;1262;71729;-78
2023/05/17 04:02:47;;;;;;;8.60;5.90;;;;;;;16.40;59.39;99845.00;105807;1256;74136;-76
2023/05/17 04:05:17;;;;;;;8.60;5.30;;;;;;;16.41;59.39;99848.61;105713;1256;60064;-76
2023/05/17 04:07:44;;;;;;;8.20;4.70;;;;;;;16.41;59.38;99848.77;106922;1256;60037;-75
2023/05/17 04:10:11;;;;;;;5.80;4.60;;;;;;;16.42;59.18;99851.86;107171;1256;75352;-73
2023/05/17 04:12:38;;;;;;;8.60;5.50;;;;;;;16.44;59.16;99854.08;105876;1257;71125;-76
2023/05/17 04:15:06;;;;;;;8.10;4.90;;;;;;;16.48;59.21;99860.57;105508;1257;73842;-75
2023/05/17 04:17:35;;;;;;;6.90;5.20;;;;;;;16.48;59.34;99863.38;105507;1258;62185;-76
2023/05/17 04:20:05;;;;;;;7.60;5.30;;;;;;;16.48;59.40;99865.31;105651;1256;61217;-76
2023/05/17 04:22:32;;;;;;;10.90;5.10;;;;;;;16.50;59.58;99869.93;105733;1256;75016;-73
2023/05/17 04:24:59;;;;;;;7.10;4.80;;;;;;;16.51;59.57;99871.59;105724;1260;71521;-73
2023/05/17 04:27:27;;;;;;;8.30;5.20;;;;;;;16.53;59.44;99872.21;105902;1256;75098;-74
2023/05/17 04:29:54;;;;;;;8.90;5.40;;;;;;;16.57;59.50;99871.88;105916;1256;62243;-76
2023/05/17 04:32:21;;;;;;;6.40;5.10;;;;;;;16.62;59.53;99876.05;105625;1256;61097;-76
2023/05/17 04:34:48;;;;;;;9.60;5.30;;;;;;;16.65;59.39;99876.69;105595;1260;75056;-74
2023/05/17 04:37:15;;;;;;;8.50;5.10;;;;;;;16.67;59.29;99874.79;105660;1256;72517;-74
2023/05/17 04:39:43;;;;;;;10.50;5.70;;;;;;;16.70;59.14;99880.64;105696;1256;72743;-73
2023/05/17 04:42:10;;;;;;;8.50;5.30;;;;;;;16.74;59.13;99881.60;105891;1256;62460;-73
2023/05/17 04:44:40;;;;;;;7.80;5.30;;;;;;;16.78;58.97;99882.73;105717;1256;61771;-78
2023/05/17 04:47:07;;;;;;;6.90;5.00;;;;;;;16.81;58.79;99888.85;105610;1256;72672;-74
2023/05/17 04:49:34;;;;;;;7.80;5.10;;;;;;;16.84;58.73;99889.53;105690;1256;69195;-75
2023/05/17 04:52:01;;;;;;;7.40;5.30;;;;;;;16.85;58.75;99892.29;105766;1257;73794;-75
2023/05/17 04:54:32;;;;;;;11.50;5.50;;;;;;;16.85;58.71;99896.88;106047;1256;61270;-76
2023/05/17 04:56:59;;;;;;;8.60;5.30;;;;;;;16.87;58.75;99896.79;105788;1256;61329;-76
2023/05/17 04:59:46;;;;;;;9.60;5.30;;;;;;;16.88;58.80;99901.73;105853;1260;75333;-77
2023/05/17 05:02:13;;;;;;;10.00;6.20;;;;;;;16.89;58.86;99904.42;105657;1256;72228;-76
2023/05/17 05:04:40;;;;;;;5.40;4.90;;;;;;;16.90;58.70;99905.58;105748;1256;74474;-77
2023/05/17 05:07:07;;;;;;;18.70;5.90;;;;;;;16.92;58.74;99903.36;105741;1256;60023;-76
2023/05/17 05:09:34;;;;;;;7.90;5.10;;;;;;;16.95;58.58;99902.61;105583;1257;62326;-78
2023/05/17 05:12:01;;;;;;;12.10;5.00;;;;;;;16.98;58.63;99899.08;105674;1257;74971;-76
2023/05/17 05:14:29;;;;;;;10.30;5.50;;;;;;;17.04;58.56;99904.43;105711;1257;71215;-78
2023/05/17 05:16:57;;;;;;;6.80;5.20;;;;;;;17.07;58.45;99903.41;105725;1258;73529;-77
2023/05/17 05:19:24;;;;;;;7.60;5.20;;;;;;;17.11;58.39;99902.16;105684;1257;61087;-77
2023/05/17 05:21:51;;;;;;;7.90;5.40;;;;;;;17.17;58.19;99905.79;105776;1257;62234;-76
2023/05/17 05:24:18;;;;;;;10.50;5.30;;;;;;;17.21;57.92;99908.60;105664;1258;73685;-78
2023/05/17 05:26:46;;;;;;;7.90;4.90;;;;;;;17.26;57.90;99911.50;105735;1260;72382;-78
2023/05/17 05:29:15;;;;;;;9.90;5.50;;;;;;;17.31;57.75;99909.52;105774;1256;74598;-76
2023/05/17 05:31:42;;;;;;;10.20;5.90;;;;;;;17.35;57.86;99910.13;106196;1259;60106;-75
2023/05/17 05:34:09;;;;;;;9.60;5.40;;;;;;;17.42;57.81;99910.73;106198;1258;59970;-75
2023/05/17 05:36:36;;;;;;;8.20;5.50;;;;;;;17.48;57.81;99917.41;105567;1261;74860;-76
2023/05/17 05:39:04;;;;;;;6.90;5.70;;;;;;;17.55;57.69;99924.06;105611;1260;70179;-72
2023/05/17 05:41:34;;;;;;;9.10;5.50;;;;;;;17.60;57.59;99925.09;105754;1255;72938;-76
2023/05/17 05:44:02;;;;;;;8.80;5.20;;;;;;;17.67;57.24;99928.05;105658;1255;59620;-75
2023/05/17 05:46:29;;;;;;;9.90;5.10;;;;;;;17.74;57.02;99925.59;105784;1256;61282;-76
2023/05/17 05:48:57;;;;;;;12.20;5.70;;;;;;;17.80;56.82;99926.56;105803;1256;76019;-76
2023/05/17 05:51:24;;;;;;;9.50;5.40;;;;;;;17.85;56.83;99934.81;105623;1256;69299;-76
2023/05/17 05:53:51;;;;;;;9.20;5.20;;;;;;;17.92;56.67;99938.77;105761;1257;73795;-75
2023/05/17 05:56:18;;;;;;;10.40;5.90;;;;;;;17.98;56.44;99939.70;105670;1260;61384;-77
2023/05/17 05:58:45;;;;;;;8.50;5.30;;;;;;;18.04;56.34;99938.30;105765;1256;59977;-80
2023/05/17 06:01:12;;;;;;;8.70;5.80;;;;;;;18.12;56.03;99937.20;105502;1257;73664;-77
2023/05/17 06:03:42;;;;;;;8.90;5.40;;;;;;;18.21;55.54;99935.34;105712;1259;72042;-79
2023/05/17 06:06:09;;;;;;;13.90;5.40;;;;;;;18.29;55.40;99937.59;105656;1262;73410;-78
2023/05/17 06:08:37;;;;;;;12.90;5.60;;;;;;;18.37;55.14;99942.19;105818;1256;61290;-75
2023/05/17 06:11:04;;;;;;;8.10;4.70;;;;;;;18.46;54.93;99940.94;105646;1257;63734;-74
2023/05/17 06:13:30;;;;;;;8.00;5.20;;;;;;;18.56;54.74;99941.02;105851;1259;75641;-76
2023/05/17 06:16:00;;;;;;;7.90;5.30;;;;;;;18.64;54.63;99944.08;105910;1253;72023;-75
2023/05/17 06:18:27;;;;;;;7.90;5.00;;;;;;;18.74;54.33;99944.35;106024;1254;76159;-76
2023/05/17 06:20:54;;;;;;;10.60;5.60;;;;;;;18.83;54.19;99945.96;105873;1253;60419;-76
2023/05/17 06:23:21;;;;;;;6.70;4.60;;;;;;;18.94;53.98;99950.91;105813;1253;61061;-74
2023/05/17 06:25:48;;;;;;;12.30;5.10;;;;;;;19.02;53.46;99957.61;105928;1257;75788;-74
2023/05/17 06:28:16;;;;;;;8.40;5.30;;;;;;;19.09;53.03;99957.23;105900;1253;72392;-73
2023/05/17 06:30:43;;;;;;;7.50;5.20;;;;;;;19.17;52.83;99957.29;105971;1256;73680;-74
2023/05/17 06:33:10;;;;;;;6.80;5.00;;;;;;;19.26;52.64;99952.16;105890;1253;60898;-76
2023/05/17 06:35:37;;;;;;;7.30;5.40;;;;;;;19.32;52.75;99962.73;105931;1253;60998;-72
2023/05/17 06:38:22;;;;;;;5.60;4.60;;;;;;;19.42;52.46;99960.60;105919;1257;73826;-75
2023/05/17 06:40:53;;;;;;;11.40;5.00;;;;;;;19.47;52.20;99963.62;106143;1258;71570;-72
2023/05/17 06:43:20;;;;;;;7.10;4.60;;;;;;;19.50;52.20;99966.24;106208;1253;73570;-74
2023/05/17 06:45:47;;;;;;;5.60;4.20;;;;;;;19.57;51.67;99965.08;106248;1258;61503;-76
2023/05/17 06:48:14;;;;;;;6.50;5.20;;;;;;;19.62;51.35;99966.31;106741;1253;61453;-74
2023/05/17 06:50:42;;;;;;;7.70;5.30;;;;;;;19.67;51.24;99966.88;107206;1253;73114;-74
2023/05/17 06:53:09;;;;;;;6.30;5.00;;;;;;;19.76;51.15;99965.23;106507;1257;72455;-75
2023/05/17 06:55:35;;;;;;;7.40;4.60;;;;;;;19.84;50.77;99960.15;106036;1254;71486;-75
2023/05/17 06:58:02;;;;;;;8.30;4.30;;;;;;;19.93;50.70;99962.96;105961;1252;62353;-75
2023/05/17 07:00:29;;;;;;;9.20;5.30;;;;;;;20.05;50.36;99964.10;105924;1254;60534;-72
2023/05/17 07:02:57;;;;;;;7.90;4.90;;;;;;;20.14;50.12;99965.45;105985;1253;75351;-76
2023/05/17 07:05:24;;;;;;;6.00;3.70;;;;;;;20.19;50.18;99961.90;105929;1257;69119;-72
2023/05/17 07:07:51;;;;;;;7.70;4.80;;;;;;;20.30;49.90;99960.84;105859;1257;71846;-76
2023/05/17 07:10:18;;;;;;;4.90;4.30;;;;;;;20.39;50.02;99955.76;105964;1256;60550;-76
2023/05/17 07:12:45;;;;;;;5.50;4.20;;;;;;;20.53;49.49;99952.14;105982;1257;62488;-76
2023/05/17 07:15:13;;;;;;;6.80;4.60;;;;;;;20.65;49.29;99954.02;105932;1256;75757;-76
2023/05/17 07:17:40;;;;;;;5.10;4.00;;;;;;;20.74;49.28;99959.47;105903;1253;72377;-74
2023/05/17 07:20:07;;;;;;;7.70;4.50;;;;;;;20.84;48.77;99961.41;105781;1253;74618;-74
2023/05/17 07:22:36;;;;;;;5.70;4.50;;;;;;;20.93;48.60;99963.15;106095;1257;60419;-74
2023/05/17 07:25:03;;;;;;;6.40;4.10;;;;;;;21.00;48.43;99963.98;105865;1252;61530;-75
2023/05/17 07:27:31;;;;;;;7.80;4.60;;;;;;;21.10;48.38;99962.17;105941;1252;75781;-75
2023/05/17 07:29:58;;;;;;;5.00;4.10;;;;;;;21.20;48.31;99961.28;105806;1253;70970;-74
2023/05/17 07:32:25;;;;;;;7.00;4.20;;;;;;;21.28;48.11;99965.97;105904;1257;74633;-73
2023/05/17 07:34:52;;;;;;;5.50;4.90;;;;;;;21.37;47.92;99961.66;105893;1253;60953;-74
2023/05/17 07:37:18;;;;;;;9.40;4.60;;;;;;;21.43;47.62;99963.36;105905;1253;60498;-76
2023/05/17 07:39:46;;;;;;;6.20;4.40;;;;;;;21.48;47.65;99964.69;105983;1257;73372;-72
2023/05/17 07:42:13;;;;;;;5.20;4.20;;;;;;;21.52;47.72;99966.73;105896;1256;72421;-72
2023/05/17 07:44:40;;;;;;;8.40;4.90;;;;;;;21.55;47.28;99966.90;105785;1253;72067;-73
2023/05/17 07:47:06;;;;;;;5.20;4.60;;;;;;;21.58;47.46;99962.66;105871;1253;60530;-73
2023/05/17 07:49:33;;;;;;;4.70;3.80;;;;;;;21.66;47.43;99961.11;105905;1253;60950;-73
2023/05/17 07:52:01;;;;;;;7.50;4.50;;;;;;;21.77;47.17;99961.89;105817;1253;75991;-73
2023/05/17 07:54:29;;;;;;;5.20;3.70;;;;;;;21.83;46.76;99968.90;105969;1253;71968;-76
2023/05/17 07:56:56;;;;;;;7.00;4.00;;;;;;;21.85;46.02;99965.09;105944;1257;74784;-74
2023/05/17 07:59:23;;;;;;;6.70;3.90;;;;;;;21.87;45.59;99975.63;105910;1258;61278;-73
2023/05/17 08:01:50;;;;;;;5.50;3.90;;;;;;;21.87;45.27;99978.66;105925;1257;62280;-72
2023/05/17 08:04:20;;;;;;;5.50;3.60;;;;;;;21.82;44.76;99973.52;105902;1258;73335;-72
2023/05/17 08:06:48;;;;;;;4.30;3.80;;;;;;;21.74;45.00;99970.27;105917;1253;69553;-73
2023/05/17 08:09:15;;;;;;;6.90;3.30;;;;;;;21.72;45.21;99971.63;106098;1254;70867;-74
2023/05/17 08:11:44;;;;;;;4.90;3.50;;;;;;;21.76;45.18;99977.02;105841;1259;61448;-71
2023/05/17 08:14:14;;;;;;;6.30;3.80;;;;;;;21.82;44.85;99979.20;105867;1253;60432;-73
2023/05/17 08:16:42;;;;;;;5.30;3.80;;;;;;;21.87;45.02;99986.40;106044;1257;73802;-74
2023/05/17 08:19:12;;;;;;;4.80;3.50;;;;;;;21.93;45.10;99981.33;105950;1258;71132;-72
2023/05/17 08:21:40;;;;;;;7.10;3.70;;;;;;;21.97;45.03;99986.23;105888;1253;72581;-74
2023/05/17 08:24:07;;;;;;;7.20;3.80;;;;;;;21.97;44.87;99987.70;105950;1256;61116;-72
2023/05/17 08:26:34;;;;;;;5.30;3.40;;;;;;;21.95;45.05;99985.77;105826;1257;62735;-75
2023/05/17 08:29:01;;;;;;;5.40;3.50;;;;;;;21.95;45.10;99983.81;105931;1252;75896;-76
2023/05/17 08:31:30;;;;;;;5.10;3.90;;;;;;;21.93;45.20;99987.35;105869;1253;70944;-72
2023/05/17 08:33:57;;;;;;;6.80;3.20;;;;;;;21.93;45.12;99991.44;105929;1253;73632;-74
2023/05/17 08:36:24;;;;;;;6.80;3.80;;;;;;;21.92;45.00;99997.31;105814;1253;62340;-74
2023/05/17 08:38:51;;;;;;;5.90;3.50;;;;;;;21.89;45.21;99988.55;105903;1253;62116;-74
2023/05/17 08:41:19;;;;;;;5.90;3.40;;;;;;;21.94;45.38;99989.14;105930;1253;74737;-72
2023/05/17 08:43:47;;;;;;;5.60;3.60;;;;;;;22.00;45.19;99992.14;105872;1253;72141;-73
2023/05/17 08:46:15;;;;;;;6.20;3.50;;;;;;;22.05;45.24;99990.03;105966;1257;73543;-72
2023/05/17 08:48:42;;;;;;;7.20;3.20;;;;;;;22.11;44.52;99989.84;105545;1253;61259;-73
2023/05/17 08:51:10;;;;;;;7.90;3.30;;;;;;;22.10;44.54;99982.90;105813;1253;61137;-72
2023/05/17 08:53:37;;;;;;;8.50;3.80;;;;;;;22.11;44.48;99987.79;105878;1253;74801;-73
2023/05/17 08:56:05;;;;;;;7.10;3.40;;;;;;;22.15;44.56;99984.40;105933;1258;72718;-72
2023/05/17 08:58:38;;;;;;;5.00;3.30;;;;;;;22.18;44.75;99985.38;105951;1256;73724;-73
2023/05/17 09:01:22;;;;;;;9.30;3.60;;;;;;;22.23;44.85;99987.52;105679;1253;60611;-71
2023/05/17 09:03:52;;;;;;;5.20;3.60;;;;;;;22.27;44.68;99986.47;105934;1253;61440;-73
2023/05/17 09:06:20;;;;;;;6.10;3.30;;;;;;;22.30;44.46;99983.88;105824;1253;76016;-72
2023/05/17 09:08:51;;;;;;;5.50;3.60;;;;;;;22.32;44.23;99986.33;106156;1253;72503;-74
2023/05/17 09:11:34;;;;;;;5.60;3.20;;;;;;;22.30;43.59;99995.56;105923;1253;73334;-75
2023/05/17 09:14:05;;;;;;;3.90;3.10;;;;;;;22.25;43.32;99987.38;105783;1254;62297;-74
2023/05/17 09:16:36;;;;;;;6.40;3.20;;;;;;;22.20;43.11;99985.91;106024;1253;61023;-74
2023/05/17 09:19:04;;;;;;;4.50;2.90;;;;;;;22.20;43.26;99992.23;105861;1253;74715;-74
2023/05/17 09:21:32;;;;;;;5.80;3.20;;;;;;;22.22;43.14;99987.14;105732;1261;72327;-74
2023/05/17 09:24:00;;;;;;;3.60;3.10;;;;;;;22.24;42.99;99989.09;105828;1256;72703;-74
2023/05/17 09:26:40;;;;;;;6.50;3.50;;;;;;;22.28;43.06;99985.50;105874;1253;60648;-74
2023/05/17 09:29:12;;;;;;;5.60;3.50;;;;;;;22.37;42.91;99987.36;105986;1259;61160;-74
2023/05/17 09:31:39;;;;;;;3.70;2.90;;;;;;;22.49;42.29;99986.36;105802;1252;74913;-75
2023/05/17 09:34:06;;;;;;;4.80;3.20;;;;;;;22.57;41.68;99988.31;105903;1253;70304;-74
2023/05/17 09:36:36;;;;;;;4.30;2.70;;;;;;;22.64;41.81;99981.83;106020;1253;74072;-74
2023/05/17 09:39:09;;;;;;;7.10;3.30;;;;;;;22.80;41.58;99980.89;105905;1256;61436;-74
2023/05/17 09:41:46;;;;;;;6.00;2.90;;;;;;;23.00;41.35;99980.98;106133;1253;62340;-74
2023/05/17 09:44:14;;;;;;;3.40;2.60;;;;;;;23.25;40.99;99990.25;105840;1253;74465;-71
2023/05/17 09:46:43;;;;;;;9.50;2.70;;;;;;;23.45;40.27;99992.52;105965;1253;70738;-73
2023/05/17 09:49:11;;;;;;;4.20;2.90;;;;;;;23.56;39.57;99991.39;105767;1253;74635;-73
2023/05/17 09:51:42;;;;;;;5.50;3.20;;;;;;;23.61;39.30;99988.33;106039;1253;62844;-74
2023/05/17 09:54:09;;;;;;;3.50;2.70;;;;;;;23.64;39.25;99987.29;105870;1253;62478;-74
2023/05/17 09:56:36;;;;;;;7.20;3.00;;;;;;;23.70;39.36;99989.37;105925;1253;75777;-72
2023/05/17 09:59:04;;;;;;;2.80;2.50;;;;;;;23.78;38.79;99981.97;106009;1253;72736;-75
2023/05/17 10:01:31;;;;;;;4.60;2.70;;;;;;;23.85;38.70;99984.52;105880;1253;74570;-74
2023/05/17 10:04:00;;;;;;;4.10;2.40;;;;;;;23.88;38.63;99984.46;106081;1253;61740;-75
2023/05/17 10:06:28;;;;;;;5.20;3.30;;;;;;;23.96;38.69;99974.52;106118;1253;61326;-74
2023/05/17 10:08:58;;;;;;;4.40;3.10;;;;;;;24.16;38.84;99973.59;105926;1258;75748;-74
2023/05/17 10:11:27;;;;;;;4.40;3.10;;;;;;;24.38;38.79;99977.65;105963;1258;73069;-74
2023/05/17 10:14:04;;;;;;;4.10;2.80;;;;;;;24.59;38.51;99978.41;106040;1256;74094;-74
2023/05/17 10:16:33;;;;;;;3.10;2.70;;;;;;;24.69;38.22;99971.95;105961;1253;61192;-73
2023/05/17 10:19:01;;;;;;;6.40;2.80;;;;;;;24.69;38.48;99970.38;106138;1254;62512;-74
2023/05/17 10:21:31;;;;;;;5.50;2.80;;;;;;;24.79;38.33;99966.83;106086;1254;74617;-75
2023/05/17 10:24:00;;;;;;;4.90;2.90;;;;;;;24.94;38.20;99970.35;106064;1253;70011;-74
2023/05/17 10:26:28;;;;;;;4.80;2.80;;;;;;;25.01;37.66;99972.63;106108;1257;74541;-74
2023/05/17 10:28:59;;;;;;;4.40;2.70;;;;;;;24.97;37.60;99967.81;105912;1253;60872;-78
2023/05/17 10:31:31;;;;;;;4.20;3.20;;;;;;;24.93;37.62;99968.05;105896;1257;62420;-77
2023/05/17 10:34:04;;;;;;;3.00;2.60;;;;;;;24.92;37.50;99966.90;106069;1253;75649;-77
2023/05/17 10:36:31;;;;;;;3.20;2.90;;;;;;;24.92;37.53;99964.52;106130;1256;71179;-80
2023/05/17 10:38:58;;;;;;;5.00;2.90;;;;;;;24.94;37.51;99963.34;105860;1259;73431;-77
2023/05/17 10:41:30;;;;;;;3.50;2.80;;;;;;;25.00;37.50;99965.83;105907;1253;60542;-74
2023/05/17 10:43:57;;;;;;;4.50;2.60;;;;;;;25.04;37.01;99970.42;105926;1253;62318;-73
2023/05/17 10:46:23;;;;;;;5.80;2.30;;;;;;;24.99;36.57;99962.35;105673;1261;75910;-74
2023/05/17 10:48:51;;;;;;;4.70;2.10;;;;;;;24.92;35.63;99974.23;105976;1253;72016;-73
2023/05/17 10:51:23;;;;;;;5.20;2.00;;;;;;;24.84;35.48;99963.18;105917;1253;73799;-74
2023/05/17 10:54:03;;;;;;;4.20;2.30;;;;;;;24.77;35.37;99961.16;106046;1256;61609;-72
2023/05/17 10:56:30;;;;;;;5.30;2.70;;;;;;;24.72;35.80;99957.30;105740;1258;61222;-73
2023/05/17 10:59:23;;;;;;;5.10;2.50;;;;;;;24.73;35.39;99959.70;105931;1256;75954;-73
2023/05/17 11:02:03;;;;;;;3.00;2.20;;;;;;;24.73;35.39;99966.52;105896;1259;70676;-73
2023/05/17 11:04:30;;;;;;;4.90;2.50;;;;;;;24.73;34.91;99961.83;105605;1256;75127;-73
2023/05/17 11:07:23;;;;;;;5.10;2.70;;;;;;;24.68;34.76;99958.63;105917;1254;60483;-73
2023/05/17 11:10:07;;;;;;;6.50;2.50;;;;;;;24.65;35.11;99957.13;105957;1254;60567;-72
2023/05/17 11:12:38;;;;;;;3.20;2.30;;;;;;;24.70;35.00;99954.47;105793;1258;76302;-71
2023/05/17 11:15:07;;;;;;;4.60;2.50;;;;;;;24.77;34.89;99959.03;105848;1253;72355;-74
2023/05/17 11:17:50;;;;;;;5.50;2.70;;;;;;;24.81;34.88;99956.27;105845;1256;73543;-74
2023/05/17 11:20:23;;;;;;;6.90;3.00;;;;;;;24.92;35.20;99952.39;105927;1252;61597;-75
2023/05/17 11:22:57;;;;;;;4.70;2.50;;;;;;;25.02;34.87;99956.06;105843;1257;61125;-73
2023/05/17 11:25:31;;;;;;;3.70;2.30;;;;;;;24.98;34.90;99955.82;105848;1253;76190;-72
2023/05/17 11:27:58;;;;;;;6.50;2.40;;;;;;;24.93;34.83;99955.23;105657;1253;72075;-71
2023/05/17 11:30:27;;;;;;;5.20;2.20;;;;;;;24.89;34.77;99954.76;105577;1262;74767;-73
2023/05/17 11:33:03;;;;;;;8.60;2.30;;;;;;;24.94;34.81;99950.35;105875;1256;60585;-72
2023/05/17 11:35:36;;;;;;;3.40;2.30;;;;;;;25.13;34.54;99947.25;105793;1257;60476;-72